createdAt,value
2017-10-01T00:01:14.883Z,2.73
2017-10-01T00:03:49.442Z,3.50
2017-10-01T00:06:18.671Z,3.23
2017-10-01T00:08:47.158Z,3.10
2017-10-01T00:11:18.886Z,3.50
2017-10-01T00:13:47.886Z,4.77
2017-10-01T00:16:18.415Z,5.33
2017-10-01T00:18:47.342Z,5.00
2017-10-01T00:21:24.685Z,5.67
2017-10-01T00:23:54.763Z,6.20
2017-10-01T00:26:29.800Z,8.50
2017-10-01T00:29:06.218Z,5.53
2017-10-01T00:31:37.171Z,6.10
2017-10-01T00:34:05.537Z,5.50
2017-10-01T00:36:33.743Z,5.00
2017-10-01T00:39:01.985Z,5.43
2017-10-01T00:41:30.054Z,5.30
2017-10-01T00:43:58.314Z,4.40
2017-10-01T00:46:26.436Z,4.30
2017-10-01T00:48:55.372Z,4.00
2017-10-01T00:51:24.063Z,4.67
2017-10-01T00:53:52.388Z,3.63
2017-10-01T00:56:20.555Z,4.00
2017-10-01T00:58:48.691Z,3.80
2017-10-01T01:01:22.903Z,2.67
2017-10-01T01:03:51.093Z,3.10
2017-10-01T01:06:19.186Z,3.10
2017-10-01T01:08:49.256Z,2.50
2017-10-01T01:11:18.086Z,2.70
2017-10-01T01:13:46.226Z,3.30
2017-10-01T01:16:14.339Z,3.80
2017-10-01T01:18:44.502Z,4.27
2017-10-01T01:21:12.690Z,4.03
2017-10-01T01:26:41.044Z,5.20
2017-10-01T01:29:09.178Z,5.50
2017-10-01T01:31:38.085Z,5.67
2017-10-01T01:34:08.398Z,6.73
2017-10-01T01:36:36.616Z,6.43
2017-10-01T01:39:04.765Z,7.07
2017-10-01T01:41:32.902Z,6.00
2017-10-01T01:44:01.027Z,6.27
2017-10-01T01:46:29.222Z,6.83
2017-10-01T01:48:57.334Z,6.00
2017-10-01T01:51:25.472Z,6.30
2017-10-01T01:53:53.603Z,6.77
2017-10-01T01:56:21.717Z,5.27
2017-10-01T01:58:49.850Z,5.40
2017-10-01T02:01:18.846Z,5.10
2017-10-01T02:03:47.099Z,5.00
2017-10-01T02:06:15.270Z,5.40
2017-10-01T02:08:43.405Z,5.30
2017-10-01T02:11:12.052Z,5.57
2017-10-01T02:13:40.303Z,4.40
2017-10-01T02:19:03.959Z,5.57
2017-10-01T02:21:32.372Z,4.40
2017-10-01T02:24:00.478Z,5.17
2017-10-01T02:26:29.479Z,5.60
2017-10-01T02:28:57.596Z,5.03
2017-10-01T02:31:25.721Z,5.50
2017-10-01T02:33:54.897Z,5.27
2017-10-01T02:36:23.016Z,4.77
2017-10-01T02:38:51.931Z,5.30
2017-10-01T02:41:20.067Z,5.07
2017-10-01T02:43:48.187Z,4.20
2017-10-01T02:46:16.361Z,4.13
2017-10-01T02:48:45.757Z,4.27
2017-10-01T02:51:17.723Z,4.30
2017-10-01T02:53:45.869Z,5.20
2017-10-01T02:56:14.070Z,4.10
2017-10-01T02:58:42.227Z,4.60
2017-10-01T03:01:10.416Z,3.80
2017-10-01T03:03:38.558Z,4.27
2017-10-01T03:06:06.717Z,3.50
2017-10-01T03:08:34.877Z,4.10
2017-10-01T03:11:03.500Z,4.47
2017-10-01T03:13:36.466Z,4.27
2017-10-01T03:16:05.646Z,4.20
2017-10-01T03:18:33.813Z,4.43
2017-10-01T03:21:01.989Z,4.03
2017-10-01T03:23:30.134Z,4.17
2017-10-01T03:25:58.389Z,4.73
2017-10-01T03:28:26.535Z,5.30
2017-10-01T03:30:54.655Z,4.03
2017-10-01T03:33:22.774Z,4.30
2017-10-01T03:35:50.942Z,4.53
2017-10-01T03:38:19.175Z,5.90
2017-10-01T03:40:48.045Z,5.50
2017-10-01T03:43:16.489Z,4.43
2017-10-01T03:45:50.232Z,4.63
2017-10-01T03:48:19.682Z,4.43
2017-10-01T03:50:51.649Z,3.70
2017-10-01T03:53:25.123Z,3.50
2017-10-01T03:55:53.332Z,5.00
2017-10-01T03:58:22.230Z,3.90
2017-10-01T04:00:50.394Z,4.33
2017-10-01T04:03:19.105Z,4.13
2017-10-01T04:05:47.356Z,4.27
2017-10-01T04:08:15.520Z,4.40
2017-10-01T04:10:43.883Z,5.40
2017-10-01T04:13:12.262Z,4.43
2017-10-01T04:15:40.423Z,5.07
2017-10-01T04:18:08.630Z,5.20
2017-10-01T04:20:38.061Z,5.37
2017-10-01T04:23:06.419Z,5.90
2017-10-01T04:25:34.569Z,5.67
2017-10-01T04:28:02.750Z,5.97
2017-10-01T04:30:32.466Z,5.50
2017-10-01T04:33:01.412Z,6.07
2017-10-01T04:35:29.585Z,6.80
2017-10-01T04:37:57.734Z,6.70
2017-10-01T04:40:25.907Z,6.00
2017-10-01T04:42:54.951Z,8.10
2017-10-01T04:45:23.070Z,6.87
2017-10-01T04:47:51.222Z,6.83
2017-10-01T04:50:19.356Z,6.70
2017-10-01T04:52:47.483Z,6.67
2017-10-01T04:55:15.662Z,6.87
2017-10-01T04:57:43.817Z,6.20
2017-10-01T05:00:12.085Z,6.80
2017-10-01T05:02:45.790Z,8.00
2017-10-01T05:05:14.670Z,7.97
2017-10-01T05:07:42.801Z,7.53
2017-10-01T05:10:10.937Z,7.67
2017-10-01T05:12:39.068Z,8.40
2017-10-01T05:15:07.269Z,6.83
2017-10-01T05:17:35.476Z,7.50
2017-10-01T05:20:04.470Z,7.73
2017-10-01T05:22:32.620Z,7.93
2017-10-01T05:25:01.608Z,7.90
2017-10-01T05:27:29.731Z,7.50
2017-10-01T05:30:00.204Z,8.30
2017-10-01T05:32:29.642Z,8.60
2017-10-01T05:34:58.643Z,8.07
2017-10-01T05:37:27.028Z,8.50
2017-10-01T05:39:55.215Z,8.27
2017-10-01T05:42:23.330Z,7.80
2017-10-01T05:44:51.444Z,8.00
2017-10-01T05:47:20.345Z,9.23
2017-10-01T05:49:49.396Z,8.73
2017-10-01T05:52:17.531Z,9.77
2017-10-01T05:54:46.648Z,9.33
2017-10-01T05:57:17.507Z,8.37
2017-10-01T05:59:45.731Z,9.30
2017-10-01T06:02:14.884Z,7.60
2017-10-01T06:04:47.907Z,8.80
2017-10-01T06:07:19.368Z,9.03
2017-10-01T06:09:47.479Z,8.83
2017-10-01T06:12:15.672Z,8.93
2017-10-01T06:14:44.821Z,9.23
2017-10-01T06:17:12.996Z,9.67
2017-10-01T06:19:41.661Z,11.63
2017-10-01T06:22:09.848Z,10.10
2017-10-01T06:24:38.026Z,10.23
2017-10-01T06:27:06.149Z,10.17
2017-10-01T06:29:34.328Z,9.47
2017-10-01T06:32:02.531Z,9.90
2017-10-01T06:34:33.774Z,9.30
2017-10-01T06:37:01.959Z,9.60
2017-10-01T06:39:30.220Z,9.17
2017-10-01T06:41:58.414Z,10.17
2017-10-01T06:44:26.523Z,10.50
2017-10-01T06:46:54.718Z,10.53
2017-10-01T06:49:35.336Z,10.80
2017-10-01T06:52:03.478Z,10.40
2017-10-01T06:54:31.606Z,9.07
2017-10-01T06:57:04.042Z,9.77
2017-10-01T06:59:32.136Z,8.60
2017-10-01T07:02:00.246Z,8.57
2017-10-01T07:04:31.403Z,9.30
2017-10-01T07:07:00.269Z,7.90
2017-10-01T07:09:30.129Z,8.97
2017-10-01T07:11:58.224Z,9.17
2017-10-01T07:14:49.544Z,9.00
2017-10-01T07:17:17.664Z,8.50
2017-10-01T07:19:52.631Z,8.97
2017-10-01T07:22:21.717Z,9.30
2017-10-01T07:24:49.846Z,9.03
2017-10-01T07:27:18.191Z,8.80
2017-10-01T07:29:46.363Z,9.20
2017-10-01T07:32:15.251Z,9.40
2017-10-01T07:34:43.369Z,9.30
2017-10-01T07:37:18.710Z,9.23
2017-10-01T07:39:47.650Z,9.43
2017-10-01T07:42:16.879Z,9.23
2017-10-01T07:44:45.072Z,8.27
2017-10-01T07:47:19.004Z,8.50
2017-10-01T07:52:24.061Z,8.07
2017-10-01T07:54:52.184Z,8.60
2017-10-01T07:57:20.364Z,9.00
2017-10-01T07:59:48.476Z,7.80
2017-10-01T08:02:16.651Z,8.70
2017-10-01T08:04:44.749Z,8.50
2017-10-01T08:07:12.887Z,9.50
2017-10-01T08:09:52.780Z,8.47
2017-10-01T08:12:21.109Z,9.20
2017-10-01T08:14:54.246Z,9.43
2017-10-01T08:17:23.254Z,9.60
2017-10-01T08:19:51.447Z,10.20
2017-10-01T08:22:20.132Z,10.43
2017-10-01T08:24:48.404Z,9.60
2017-10-01T08:27:16.510Z,10.50
2017-10-01T08:29:44.672Z,9.30
2017-10-01T08:32:17.836Z,10.03
2017-10-01T08:34:48.435Z,9.53
2017-10-01T08:37:16.541Z,8.00
2017-10-01T08:39:50.757Z,8.97
2017-10-01T08:45:16.912Z,8.60
2017-10-01T08:47:45.102Z,8.00
2017-10-01T08:50:13.350Z,7.77
2017-10-01T08:52:41.459Z,9.07
2017-10-01T08:55:10.417Z,7.67
2017-10-01T08:57:38.639Z,8.77
2017-10-01T09:00:07.730Z,8.63
2017-10-01T09:02:36.125Z,7.77
2017-10-01T09:05:04.257Z,9.00
2017-10-01T09:07:32.421Z,7.70
2017-10-01T09:10:00.535Z,7.60
2017-10-01T09:12:28.767Z,7.70
2017-10-01T09:15:00.965Z,9.10
2017-10-01T09:17:31.248Z,9.47
2017-10-01T09:19:59.513Z,8.13
2017-10-01T09:22:27.717Z,8.80
2017-10-01T09:24:55.825Z,7.60
2017-10-01T09:27:24.002Z,6.47
2017-10-01T09:30:17.400Z,6.37
2017-10-01T09:32:45.541Z,8.20
2017-10-01T09:35:13.664Z,7.50
2017-10-01T09:37:48.852Z,7.40
2017-10-01T09:43:13.254Z,5.37
2017-10-01T09:45:41.387Z,6.80
2017-10-01T09:48:09.795Z,6.57
2017-10-01T09:50:38.546Z,6.57
2017-10-01T09:53:06.760Z,5.60
2017-10-01T09:55:46.831Z,5.87
2017-10-01T09:58:15.200Z,4.93
2017-10-01T10:00:43.350Z,4.90
2017-10-01T10:03:11.493Z,5.13
2017-10-01T10:05:39.608Z,4.70
2017-10-01T10:08:07.847Z,4.90
2017-10-01T10:10:38.030Z,4.77
2017-10-01T10:13:06.994Z,3.70
2017-10-01T10:15:35.205Z,4.17
2017-10-01T10:18:03.375Z,4.17
2017-10-01T10:20:31.621Z,4.30
2017-10-01T10:23:12.190Z,3.93
2017-10-01T10:25:40.384Z,3.60
2017-10-01T10:28:08.610Z,4.07
2017-10-01T10:30:36.855Z,4.27
2017-10-01T10:33:05.038Z,2.80
2017-10-01T10:35:33.200Z,2.93
2017-10-01T10:38:01.354Z,2.57
2017-10-01T10:40:29.527Z,2.80
2017-10-01T10:42:57.657Z,3.70
2017-10-01T10:45:25.919Z,3.47
2017-10-01T10:47:55.086Z,3.60
2017-10-01T10:50:24.058Z,4.37
2017-10-01T10:52:52.200Z,3.07
2017-10-01T10:55:20.378Z,2.90
2017-10-01T10:57:48.498Z,2.80
2017-10-01T11:00:17.530Z,3.00
2017-10-01T11:02:49.464Z,3.10
2017-10-01T11:05:19.372Z,2.23
2017-10-01T11:07:47.519Z,2.50
2017-10-01T11:10:16.531Z,2.80
2017-10-01T11:12:44.790Z,2.90
2017-10-01T11:15:12.967Z,2.80
2017-10-01T11:17:48.036Z,2.60
2017-10-01T11:20:18.448Z,2.50
2017-10-01T11:22:46.546Z,2.07
2017-10-01T11:25:14.696Z,2.37
2017-10-01T11:27:42.874Z,1.93
2017-10-01T11:30:11.127Z,1.90
2017-10-01T11:32:39.320Z,2.40
2017-10-01T11:35:07.864Z,2.10
2017-10-01T11:37:36.053Z,2.70
2017-10-01T11:40:06.395Z,2.30
2017-10-01T11:42:37.072Z,3.10
2017-10-01T11:45:06.847Z,2.70
2017-10-01T11:47:35.125Z,2.00
2017-10-01T11:50:03.309Z,2.40
2017-10-01T11:52:31.514Z,3.13
2017-10-01T11:54:59.647Z,2.87
2017-10-01T11:57:28.090Z,2.30
2017-10-01T11:59:56.357Z,2.40
2017-10-01T12:02:24.499Z,2.77
2017-10-01T12:04:53.469Z,2.47
2017-10-01T12:07:21.700Z,2.93
2017-10-01T12:09:54.979Z,2.60
2017-10-01T12:12:23.101Z,2.50
2017-10-01T12:14:51.462Z,2.20
2017-10-01T12:17:19.626Z,2.43
2017-10-01T12:19:51.545Z,1.60
2017-10-01T12:22:20.522Z,2.60
2017-10-01T12:24:48.799Z,1.83
2017-10-01T12:27:16.946Z,2.10
2017-10-01T12:29:45.162Z,1.73
2017-10-01T12:32:13.785Z,2.17
2017-10-01T12:34:41.937Z,2.10
2017-10-01T12:37:10.136Z,1.87
2017-10-01T12:39:38.314Z,1.97
2017-10-01T12:42:07.346Z,2.03
2017-10-01T12:44:37.102Z,2.03
2017-10-01T12:47:05.385Z,2.20
2017-10-01T12:49:35.677Z,2.30
2017-10-01T12:52:03.809Z,1.83
2017-10-01T12:54:31.971Z,1.63
2017-10-01T12:57:00.245Z,3.67
2017-10-01T12:59:29.182Z,2.13
2017-10-01T13:02:02.918Z,2.40
2017-10-01T13:04:34.051Z,2.13
2017-10-01T13:07:04.729Z,1.80
2017-10-01T13:09:33.834Z,1.70
2017-10-01T13:12:02.329Z,1.10
2017-10-01T13:14:31.598Z,1.40
2017-10-01T13:17:00.104Z,1.50
2017-10-01T13:19:28.612Z,1.87
2017-10-01T13:21:56.724Z,2.80
2017-10-01T13:24:28.876Z,1.50
2017-10-01T13:26:57.997Z,1.80
2017-10-01T13:29:26.179Z,1.80
2017-10-01T13:31:54.329Z,1.80
2017-10-01T13:34:22.571Z,2.10
2017-10-01T13:39:30.788Z,1.40
2017-10-01T13:41:59.137Z,1.60
2017-10-01T13:44:27.270Z,1.80
2017-10-01T13:46:56.208Z,2.07
2017-10-01T13:49:24.316Z,1.70
2017-10-01T13:51:53.463Z,1.87
2017-10-01T13:54:21.983Z,1.77
2017-10-01T13:56:50.126Z,2.60
2017-10-01T13:59:19.093Z,1.67
2017-10-01T14:01:47.194Z,1.80
2017-10-01T14:04:15.971Z,1.70
2017-10-01T14:06:44.197Z,1.40
2017-10-01T14:09:12.366Z,1.47
2017-10-01T14:14:41.851Z,2.40
2017-10-01T14:17:10.172Z,1.30
2017-10-01T14:19:38.323Z,1.47
2017-10-01T14:22:06.520Z,1.20
2017-10-01T14:24:34.700Z,1.30
2017-10-01T14:27:02.867Z,1.23
2017-10-01T14:29:31.003Z,1.30
2017-10-01T14:31:59.164Z,2.80
2017-10-01T14:34:47.428Z,1.70
2017-10-01T14:37:15.666Z,1.70
2017-10-01T14:39:44.749Z,1.70
2017-10-01T14:42:28.024Z,1.50
2017-10-01T14:44:58.349Z,1.80
2017-10-01T14:47:26.641Z,1.90
2017-10-01T14:49:54.785Z,3.17
2017-10-01T14:52:22.898Z,2.63
2017-10-01T14:54:51.135Z,2.10
2017-10-01T14:57:19.262Z,1.77
2017-10-01T14:59:48.835Z,1.97
2017-10-01T15:02:18.139Z,1.83
2017-10-01T15:04:48.186Z,1.80
2017-10-01T15:07:20.325Z,1.97
2017-10-01T15:09:48.535Z,1.67
2017-10-01T15:12:16.810Z,1.87
2017-10-01T15:14:44.947Z,2.37
2017-10-01T15:17:13.234Z,1.97
2017-10-01T15:19:48.347Z,2.20
2017-10-01T15:22:16.623Z,3.20
2017-10-01T15:24:44.809Z,2.43
2017-10-01T15:27:13.015Z,2.67
2017-10-01T15:29:41.271Z,2.23
2017-10-01T15:32:09.498Z,1.63
2017-10-01T15:34:37.659Z,2.10
2017-10-01T15:37:06.611Z,1.93
2017-10-01T15:39:34.752Z,1.70
2017-10-01T15:42:02.878Z,2.30
2017-10-01T15:44:31.082Z,1.70
2017-10-01T15:46:59.210Z,2.20
2017-10-01T15:49:27.953Z,2.20
2017-10-01T15:51:56.233Z,2.03
2017-10-01T15:54:24.403Z,2.27
2017-10-01T15:56:52.688Z,2.80
2017-10-01T16:02:18.959Z,2.40
2017-10-01T16:04:47.100Z,1.70
2017-10-01T16:07:15.635Z,2.10
2017-10-01T16:09:43.781Z,1.80
2017-10-01T16:12:13.021Z,2.10
2017-10-01T16:14:41.172Z,2.03
2017-10-01T16:17:09.485Z,2.23
2017-10-01T16:19:37.606Z,2.30
2017-10-01T16:22:05.732Z,2.00
2017-10-01T16:24:33.842Z,2.07
2017-10-01T16:27:02.100Z,1.83
2017-10-01T16:29:30.257Z,1.90
2017-10-01T16:32:02.132Z,3.37
2017-10-01T16:34:31.241Z,2.10
2017-10-01T16:37:16.248Z,2.17
2017-10-01T16:39:44.395Z,2.03
2017-10-01T16:42:12.628Z,4.30
2017-10-01T16:44:40.750Z,2.73
2017-10-01T16:47:08.963Z,1.90
2017-10-01T16:49:37.237Z,2.23
2017-10-01T16:52:05.508Z,2.30
2017-10-01T16:54:33.671Z,2.50
2017-10-01T16:57:03.013Z,2.50
2017-10-01T16:59:31.125Z,2.07
2017-10-01T17:02:00.277Z,2.07
2017-10-01T17:04:30.091Z,3.10
2017-10-01T17:07:00.131Z,3.27
2017-10-01T17:09:29.310Z,2.80
2017-10-01T17:12:01.067Z,5.70
2017-10-01T17:14:29.581Z,3.67
2017-10-01T17:16:59.281Z,3.53
2017-10-01T17:19:27.417Z,3.03
2017-10-01T17:21:57.045Z,3.60
2017-10-01T17:24:25.228Z,2.90
2017-10-01T17:26:54.684Z,2.23
2017-10-01T17:29:23.553Z,2.63
2017-10-01T17:31:51.962Z,2.90
2017-10-01T17:34:20.484Z,2.90
2017-10-01T17:36:48.882Z,3.03
2017-10-01T17:39:17.684Z,2.87
2017-10-01T17:41:46.723Z,4.43
2017-10-01T17:44:16.068Z,3.00
2017-10-01T17:46:44.941Z,4.20
2017-10-01T17:49:13.878Z,5.43
2017-10-01T17:51:43.594Z,11.60
2017-10-01T17:54:15.585Z,7.23
2017-10-01T17:56:45.063Z,12.83
2017-10-01T17:59:13.980Z,8.43
2017-10-01T18:01:49.399Z,9.70
2017-10-01T18:04:18.642Z,19.87
2017-10-01T18:06:46.747Z,29.10
2017-10-01T18:09:14.885Z,6.67
2017-10-01T18:11:46.227Z,13.20
2017-10-01T18:14:14.408Z,14.10
2017-10-01T18:16:43.450Z,6.80
2017-10-01T18:19:11.644Z,23.30
2017-10-01T18:21:39.797Z,18.53
2017-10-01T18:24:07.926Z,5.57
2017-10-01T18:26:36.111Z,7.10
2017-10-01T18:29:04.229Z,8.53
2017-10-01T18:31:32.354Z,7.93
2017-10-01T18:34:01.264Z,7.33
2017-10-01T18:36:29.395Z,8.57
2017-10-01T18:38:58.278Z,9.13
2017-10-01T18:41:26.643Z,6.40
2017-10-01T18:43:55.494Z,3.93
2017-10-01T18:49:25.910Z,5.03
2017-10-01T18:51:54.812Z,8.53
2017-10-01T18:54:22.963Z,5.30
2017-10-01T18:56:51.079Z,3.80
2017-10-01T18:59:20.164Z,3.90
2017-10-01T19:01:48.290Z,3.50
2017-10-01T19:04:16.586Z,4.30
2017-10-01T19:06:45.491Z,4.70
2017-10-01T19:09:16.030Z,4.93
2017-10-01T19:11:48.616Z,6.30
2017-10-01T19:14:16.745Z,5.63
2017-10-01T19:16:45.481Z,6.60
2017-10-01T19:19:13.674Z,9.97
2017-10-01T19:21:41.838Z,13.47
2017-10-01T19:24:09.943Z,7.93
2017-10-01T19:26:38.503Z,11.50
2017-10-01T19:29:06.961Z,5.20
2017-10-01T19:31:36.249Z,4.37
2017-10-01T19:34:20.566Z,4.87
2017-10-01T19:36:48.778Z,3.60
2017-10-01T19:39:17.869Z,4.53
2017-10-01T19:41:46.253Z,4.37
2017-10-01T19:44:14.436Z,4.60
2017-10-01T19:46:46.333Z,4.10
2017-10-01T19:49:14.503Z,4.70
2017-10-01T19:51:42.607Z,4.40
2017-10-01T19:54:10.768Z,5.90
2017-10-01T19:56:39.703Z,5.83
2017-10-01T19:59:07.836Z,5.03
2017-10-01T20:01:35.940Z,5.50
2017-10-01T20:04:04.103Z,4.30
2017-10-01T20:06:32.227Z,3.70
2017-10-01T20:09:01.231Z,4.77
2017-10-01T20:11:29.445Z,4.50
2017-10-01T20:14:03.272Z,4.67
2017-10-01T20:16:31.442Z,4.83
2017-10-01T20:18:59.614Z,4.27
2017-10-01T20:21:27.968Z,3.80
2017-10-01T20:23:56.083Z,4.60
2017-10-01T20:26:24.256Z,4.50
2017-10-01T20:28:52.458Z,4.10
2017-10-01T20:31:21.179Z,3.83
2017-10-01T20:33:49.275Z,4.47
2017-10-01T20:36:18.186Z,4.93
2017-10-01T20:38:46.282Z,4.97
2017-10-01T20:41:14.442Z,4.33
2017-10-01T20:43:43.390Z,4.80
2017-10-01T20:46:11.499Z,3.87
2017-10-01T20:48:40.486Z,4.63
2017-10-01T20:51:11.231Z,4.50
2017-10-01T20:53:39.444Z,5.03
2017-10-01T20:56:08.379Z,5.07
2017-10-01T20:58:36.546Z,4.70
2017-10-01T21:01:10.175Z,4.40
2017-10-01T21:03:38.316Z,4.10
2017-10-01T21:06:07.227Z,5.20
2017-10-01T21:08:36.847Z,4.60
2017-10-01T21:11:04.996Z,4.37
2017-10-01T21:13:33.226Z,4.43
2017-10-01T21:16:01.901Z,4.30
2017-10-01T21:18:30.174Z,4.37
2017-10-01T21:20:58.380Z,4.40
2017-10-01T21:23:26.675Z,4.30
2017-10-01T21:25:54.767Z,4.30
2017-10-01T21:31:05.927Z,5.00
2017-10-01T21:33:43.053Z,4.80
2017-10-01T21:36:11.329Z,4.70
2017-10-01T21:38:48.235Z,3.80
2017-10-01T21:44:32.166Z,3.93
2017-10-01T21:47:10.079Z,4.10
2017-10-01T21:49:44.856Z,4.20
2017-10-01T21:52:19.537Z,3.80
2017-10-01T21:54:47.811Z,3.90
2017-10-01T21:57:18.345Z,5.30
2017-10-01T21:59:49.934Z,4.00
2017-10-01T22:02:18.558Z,4.07
2017-10-01T22:04:47.572Z,3.67
2017-10-01T22:07:15.703Z,4.03
2017-10-01T22:09:43.833Z,3.47
2017-10-01T22:12:11.995Z,4.47
2017-10-01T22:14:40.139Z,4.30
2017-10-01T22:17:08.280Z,4.07
2017-10-01T22:19:36.601Z,3.77
2017-10-01T22:22:04.994Z,4.20
2017-10-01T22:24:33.198Z,3.80
2017-10-01T22:27:01.287Z,3.70
2017-10-01T22:29:30.354Z,3.50
2017-10-01T22:31:58.557Z,3.50
2017-10-01T22:34:26.733Z,4.43
2017-10-01T22:36:54.866Z,4.33
2017-10-01T22:39:22.976Z,4.17
2017-10-01T22:41:51.885Z,3.47
2017-10-01T22:44:20.050Z,3.80
2017-10-01T22:46:48.299Z,3.90
2017-10-01T22:49:16.457Z,3.80
2017-10-01T22:51:44.623Z,3.60
2017-10-01T22:54:12.734Z,3.10
2017-10-01T22:56:40.924Z,3.20
2017-10-01T22:59:09.042Z,3.40
2017-10-01T23:01:37.169Z,4.00
2017-10-01T23:04:05.306Z,3.53
2017-10-01T23:06:39.221Z,4.00
2017-10-01T23:09:07.349Z,3.93
2017-10-01T23:11:35.450Z,4.00
2017-10-01T23:14:03.566Z,3.63
2017-10-01T23:16:31.789Z,3.57
2017-10-01T23:18:59.900Z,3.23
2017-10-01T23:21:28.038Z,3.78
2017-10-01T23:23:56.219Z,3.60
2017-10-01T23:26:24.410Z,4.23
2017-10-01T23:28:52.526Z,3.40
2017-10-01T23:31:20.678Z,3.77
2017-10-01T23:33:48.793Z,4.13
2017-10-01T23:36:16.978Z,3.47
2017-10-01T23:38:45.115Z,3.53
2017-10-01T23:41:14.052Z,4.40
2017-10-01T23:43:42.220Z,3.20
2017-10-01T23:46:10.333Z,3.40
2017-10-01T23:48:38.451Z,3.70
2017-10-01T23:51:06.603Z,3.60
2017-10-01T23:53:34.682Z,4.00
2017-10-01T23:56:02.781Z,3.80
2017-10-01T23:58:30.915Z,3.90
